createdAt,value
2023-04-17T00:04:06.162Z,15.98
2023-04-17T00:09:10.292Z,18.88
2023-04-17T00:14:15.077Z,18.48
2023-04-17T00:19:18.639Z,22.13
2023-04-17T00:24:22.312Z,24.45
2023-04-17T00:29:27.279Z,20.70
2023-04-17T00:34:31.107Z,16.77
2023-04-17T00:39:34.601Z,17.33
2023-04-17T00:44:39.545Z,20.17
2023-04-17T00:49:43.370Z,18.02
2023-04-17T00:54:47.166Z,19.65
2023-04-17T00:59:52.408Z,15.18
2023-04-17T01:04:56.092Z,16.50
2023-04-17T01:10:00.623Z,16.98
2023-04-17T01:15:06.244Z,13.77
2023-04-17T01:20:11.291Z,15.07
2023-04-17T01:25:16.184Z,14.93
2023-04-17T01:30:20.016Z,16.38
2023-04-17T01:35:32.558Z,26.13
2023-04-17T01:40:37.495Z,15.60
2023-04-17T01:45:41.215Z,14.65
2023-04-17T01:50:45.236Z,20.20
2023-04-17T01:55:50.467Z,18.40
2023-04-17T02:00:54.069Z,18.20
2023-04-17T02:05:57.719Z,17.48
2023-04-17T02:11:02.400Z,18.50
2023-04-17T02:16:06.345Z,18.90
2023-04-17T02:21:10.872Z,21.45
2023-04-17T02:26:16.338Z,21.15
2023-04-17T02:31:21.354Z,21.77
2023-04-17T02:36:26.790Z,23.77
2023-04-17T02:41:31.793Z,22.63
2023-04-17T02:46:35.150Z,25.00
2023-04-17T02:51:39.835Z,23.17
2023-04-17T02:56:44.842Z,23.02
2023-04-17T03:01:48.604Z,20.30
2023-04-17T03:06:55.170Z,18.83
2023-04-17T03:12:00.329Z,20.27
2023-04-17T03:17:04.011Z,22.60
2023-04-17T03:22:07.628Z,21.17
2023-04-17T03:27:12.643Z,24.65
2023-04-17T03:32:18.953Z,19.70
2023-04-17T03:37:23.125Z,21.70
2023-04-17T03:42:29.865Z,19.63
2023-04-17T03:47:33.640Z,22.02
2023-04-17T03:52:37.797Z,23.67
2023-04-17T03:57:43.494Z,22.08
2023-04-17T04:02:47.941Z,25.35
2023-04-17T04:07:56.626Z,25.13
2023-04-17T04:13:11.689Z,26.58
2023-04-17T04:18:17.392Z,25.20
2023-04-17T04:23:21.307Z,22.73
2023-04-17T04:28:28.325Z,23.73
2023-04-17T04:33:32.093Z,21.85
2023-04-17T04:38:35.944Z,22.35
2023-04-17T04:43:48.222Z,25.60
2023-04-17T04:48:51.624Z,22.20
2023-04-17T04:53:55.130Z,30.77
2023-04-17T04:59:01.053Z,27.40
2023-04-17T05:04:08.785Z,25.13
2023-04-17T05:09:13.658Z,28.05
2023-04-17T05:14:20.690Z,21.67
2023-04-17T05:19:24.914Z,22.55
2023-04-17T05:24:35.795Z,21.02
2023-04-17T05:29:40.767Z,24.30
2023-04-17T05:39:49.092Z,21.70
2023-04-17T05:44:53.878Z,20.60
2023-04-17T05:49:58.903Z,20.40
2023-04-17T05:55:05.747Z,24.15
2023-04-17T06:05:23.398Z,18.23
2023-04-17T06:10:27.198Z,19.57
2023-04-17T06:15:32.276Z,19.85
2023-04-17T06:20:38.684Z,24.58
2023-04-17T06:25:43.976Z,22.58
2023-04-17T06:30:49.172Z,24.48
2023-04-17T06:35:53.024Z,23.77
2023-04-17T06:41:05.046Z,22.70
2023-04-17T06:46:10.246Z,28.90
2023-04-17T06:51:13.867Z,24.45
2023-04-17T06:56:17.509Z,24.48
2023-04-17T07:01:22.525Z,25.95
2023-04-17T07:06:26.549Z,22.58
2023-04-17T07:11:30.241Z,24.45
2023-04-17T07:16:35.342Z,24.58
2023-04-17T07:21:39.073Z,25.83
2023-04-17T07:26:43.367Z,23.08
2023-04-17T07:31:47.988Z,18.65
2023-04-17T07:36:51.955Z,17.67
2023-04-17T07:41:56.274Z,17.55
2023-04-17T07:47:01.004Z,21.15
2023-04-17T07:52:04.607Z,26.58
2023-04-17T07:57:08.311Z,19.30
2023-04-17T08:02:13.006Z,20.50
2023-04-17T08:07:18.244Z,18.23
2023-04-17T08:12:21.494Z,15.30
2023-04-17T08:17:26.319Z,18.42
2023-04-17T08:22:29.824Z,15.57
2023-04-17T08:27:33.020Z,21.77
2023-04-17T08:32:41.163Z,21.17
2023-04-17T08:37:46.864Z,17.77
2023-04-17T08:42:51.451Z,15.48
2023-04-17T08:47:56.158Z,20.02
2023-04-17T08:52:59.813Z,20.25
2023-04-17T08:58:04.883Z,19.13
2023-04-17T09:03:12.326Z,22.05
2023-04-17T09:08:17.495Z,16.38
2023-04-17T09:13:24.354Z,13.93
2023-04-17T09:18:31.278Z,14.35
2023-04-17T09:23:49.732Z,15.38
2023-04-17T09:29:08.739Z,13.82
2023-04-17T09:34:15.472Z,13.30
2023-04-17T09:39:20.968Z,14.07
2023-04-17T09:44:28.042Z,19.77
2023-04-17T09:49:35.094Z,13.88
2023-04-17T09:54:40.798Z,13.85
2023-04-17T09:59:45.847Z,14.75
2023-04-17T10:04:50.495Z,18.45
2023-04-17T10:09:53.750Z,11.33
2023-04-17T10:14:57.257Z,11.02
2023-04-17T10:20:35.570Z,10.65
2023-04-17T10:25:38.829Z,13.73
2023-04-17T10:31:01.314Z,20.15
2023-04-17T10:36:06.339Z,14.38
2023-04-17T10:41:11.270Z,10.32
2023-04-17T10:46:15.602Z,13.85
2023-04-17T10:51:42.902Z,10.52
2023-04-17T10:56:48.394Z,10.77
2023-04-17T11:02:01.562Z,10.77
2023-04-17T11:07:07.692Z,11.80
2023-04-17T11:12:13.506Z,13.75
2023-04-17T11:17:17.436Z,15.95
2023-04-17T11:22:23.303Z,15.48
2023-04-17T11:27:26.937Z,12.95
2023-04-17T11:32:37.582Z,11.05
2023-04-17T11:38:14.175Z,11.60
2023-04-17T11:43:18.436Z,13.05
2023-04-17T11:48:23.724Z,11.65
2023-04-17T11:53:28.742Z,11.73
2023-04-17T11:58:32.072Z,11.77
2023-04-17T12:03:37.410Z,13.38
2023-04-17T12:13:50.341Z,11.85
2023-04-17T12:18:54.312Z,16.73
2023-04-17T12:23:59.000Z,11.63
2023-04-17T12:29:03.107Z,10.05
2023-04-17T12:34:06.658Z,11.65
2023-04-17T12:39:13.475Z,12.95
2023-04-17T12:44:17.198Z,13.52
2023-04-17T12:49:21.024Z,13.32
2023-04-17T12:54:25.996Z,13.70
2023-04-17T12:59:29.519Z,13.50
2023-04-17T13:04:33.521Z,9.57
2023-04-17T13:09:38.586Z,12.65
2023-04-17T13:14:42.387Z,12.82
2023-04-17T13:19:46.033Z,12.40
2023-04-17T13:24:51.056Z,9.52
2023-04-17T13:29:55.834Z,11.32
2023-04-17T13:34:59.454Z,12.70
2023-04-17T13:40:05.506Z,12.95
2023-04-17T13:45:09.736Z,15.75
2023-04-17T13:50:13.554Z,17.83
2023-04-17T13:55:18.670Z,15.07
2023-04-17T14:00:22.928Z,15.90
2023-04-17T14:05:26.634Z,12.90
2023-04-17T14:10:31.308Z,10.52
2023-04-17T14:15:34.592Z,12.37
2023-04-17T14:20:37.846Z,15.52
2023-04-17T14:25:43.248Z,12.40
2023-04-17T14:35:50.168Z,12.82
2023-04-17T14:40:55.270Z,13.93
2023-04-17T14:45:58.994Z,15.38
2023-04-17T14:51:02.698Z,12.55
2023-04-17T14:56:08.238Z,14.68
2023-04-17T15:01:12.221Z,10.43
2023-04-17T15:06:16.138Z,15.77
2023-04-17T15:11:21.352Z,13.05
2023-04-17T15:16:25.103Z,14.10
2023-04-17T15:21:28.825Z,14.27
2023-04-17T15:26:34.897Z,19.50
2023-04-17T15:31:40.882Z,16.75
2023-04-17T15:36:44.722Z,20.15
2023-04-17T15:41:50.275Z,18.52
2023-04-17T15:51:57.304Z,15.48
2023-04-17T15:57:02.098Z,20.00
2023-04-17T16:02:06.088Z,14.63
2023-04-17T16:07:11.076Z,16.27
2023-04-17T16:12:15.665Z,14.45
2023-04-17T16:17:19.641Z,15.87
2023-04-17T16:22:23.235Z,14.90
2023-04-17T16:27:29.013Z,14.30
2023-04-17T16:32:32.895Z,13.23
2023-04-17T16:37:36.728Z,16.52
2023-04-17T16:42:42.185Z,16.13
2023-04-17T16:52:51.016Z,16.67
2023-04-17T16:57:56.029Z,16.95
2023-04-17T17:02:59.821Z,17.30
2023-04-17T17:08:03.666Z,22.83
2023-04-17T17:13:08.749Z,18.77
2023-04-17T17:18:12.236Z,22.48
2023-04-17T17:23:15.674Z,22.25
2023-04-17T17:28:20.581Z,22.67
2023-04-17T17:33:24.075Z,23.38
2023-04-17T17:38:29.204Z,19.98
2023-04-17T17:43:34.108Z,22.05
2023-04-17T17:48:37.619Z,24.43
2023-04-17T17:53:41.657Z,26.63
2023-04-17T17:58:46.655Z,22.92
2023-04-17T18:03:50.421Z,23.85
2023-04-17T18:08:54.262Z,22.60
2023-04-17T18:14:01.147Z,26.60
2023-04-17T18:19:05.522Z,22.13
2023-04-17T18:24:09.751Z,21.67
2023-04-17T18:29:14.667Z,25.67
2023-04-17T18:34:19.214Z,17.37
2023-04-17T18:39:22.776Z,18.90
2023-04-17T18:44:27.673Z,17.30
2023-04-17T18:49:31.187Z,15.90
2023-04-17T18:54:34.565Z,13.80
2023-04-17T18:59:40.518Z,16.15
2023-04-17T19:04:45.965Z,16.08
2023-04-17T19:09:49.604Z,16.13
2023-04-17T19:14:56.634Z,13.73
2023-04-17T19:20:00.271Z,16.33
2023-04-17T19:25:03.813Z,14.52
2023-04-17T19:30:10.192Z,15.43
2023-04-17T19:35:14.111Z,13.18
2023-04-17T19:40:24.404Z,13.32
2023-04-17T19:45:32.808Z,9.13
2023-04-17T19:50:36.317Z,14.50
2023-04-17T19:55:41.891Z,13.52
2023-04-17T20:05:51.047Z,13.73
2023-04-17T20:10:54.574Z,12.75
2023-04-17T20:15:59.634Z,18.55
2023-04-17T20:21:02.908Z,14.35
2023-04-17T20:26:08.175Z,14.40
2023-04-17T20:31:12.934Z,14.38
2023-04-17T20:36:16.552Z,12.50
2023-04-17T20:41:20.134Z,13.65
2023-04-17T20:46:25.203Z,15.45
2023-04-17T20:51:28.944Z,11.60
2023-04-17T20:56:32.665Z,18.38
2023-04-17T21:01:37.725Z,14.75
2023-04-17T21:06:41.347Z,12.07
2023-04-17T21:11:45.015Z,12.88
2023-04-17T21:16:50.468Z,13.82
2023-04-17T21:21:54.096Z,15.35
2023-04-17T21:26:59.095Z,15.45
2023-04-17T21:32:04.953Z,13.80
2023-04-17T21:37:08.707Z,11.55
2023-04-17T21:42:12.623Z,11.60
2023-04-17T21:47:19.785Z,12.23
2023-04-17T21:52:23.578Z,13.68
2023-04-17T21:57:27.245Z,16.15
2023-04-17T22:02:32.324Z,11.43
2023-04-17T22:07:47.382Z,14.68
2023-04-17T22:12:58.230Z,14.48
2023-04-17T22:18:02.971Z,14.65
2023-04-17T22:23:06.672Z,17.00
2023-04-17T22:28:10.555Z,15.30
2023-04-17T22:33:15.944Z,15.88
2023-04-17T22:38:21.161Z,16.10
2023-04-17T22:43:24.842Z,15.30
2023-04-17T22:48:29.732Z,14.40
2023-04-17T22:53:33.460Z,14.20
2023-04-17T22:58:37.497Z,20.48
2023-04-17T23:03:42.522Z,21.30
2023-04-17T23:08:46.340Z,18.40
2023-04-17T23:13:50.108Z,15.60
2023-04-17T23:18:55.072Z,17.73
2023-04-17T23:23:58.884Z,19.98
2023-04-17T23:29:02.478Z,24.67
2023-04-17T23:34:07.664Z,18.50
2023-04-17T23:39:11.491Z,15.52
2023-04-17T23:44:15.371Z,18.92
2023-04-17T23:49:20.453Z,17.42
2023-04-17T23:54:24.191Z,18.00
2023-04-17T23:59:27.831Z,16.35
